• Join FlightAware (Why Join?)
  • Login
  • US Flag 
11:53PM EST


 

Airport Tracker/Info


-or-


 

Live Flight TrackerFlight Track Log ✈ UAL3740 ✈ 10-Apr-2013 ✈ KIAD - KPVD

Flight Track Log - Related Links

Times and Time Zones

All times are in EDT time to prevent confusion due to time zone crossing. See the UAL3740 flight status page for this flight to view local times or setup timezone preferences in your user account.

Time Position Orientation Groundspeed Altitude Reporting Facility
EDT Latitude Longitude Course Direction KTS MPH feet Rate Location/Type
08:36AM 38.9667 -77.5333 90° East 207 238 3,400  Level Potomac TRACON
08:37AM 39.0333 -77.5333 360° North 261 300 6,600 3,150 Climbing Potomac TRACON
08:38AM 39.1000 -77.4833 30° Northeast 316 364 9,700 1,774 Climbing Potomac TRACON
08:39AM 39.1500 -77.3833 57° Northeast 362 417 10,000 1,862 Climbing Potomac TRACON
08:41AM 39.0833 -76.6132 90° East  Level FlightAware Approximate
08:41AM 39.1294 -77.0606 95° East 392 451 16,000  Level Washington Center
08:42AM 39.1272 -76.8972 91° East 400 460 18,600 2,300 Climbing Washington Center
08:43AM 39.1350 -76.7394 86° East 411 473 20,600 1,250 Climbing Washington Center
08:44AM 39.1428 -76.5844 86° East 425 489 21,100 1,150 Climbing Washington Center
08:45AM 39.1481 -76.4214 88° East 430 495 22,900 950 Climbing Washington Center
08:46AM 39.1533 -76.2608 88° East 443 510 23,000 50 Climbing Washington Center
08:47AM 39.1686 -76.0975 83° East 448 516 23,000  Level Washington Center
08:48AM 39.1858 -75.9344 82° East 448 516 23,000 450 Level Washington Center
08:49AM 39.2508 -75.8061 57° Northeast 426 490 23,900 1,250 Climbing Washington Center
08:50AM 39.3406 -75.6936 44° Northeast 428 493 25,500 1,600 Climbing Washington Center
08:51AM 39.4303 -75.5756 45° Northeast 438 504 27,100 1,394 Climbing Washington Center
08:53AM 39.5639 -75.4056 44° Northeast 466 536 29,100 1,346 Climbing New York Center
08:54AM 39.6561 -75.2847 45° Northeast 466 536 30,600 1,361 Climbing New York Center
08:55AM 39.7403 -75.1553 50° Northeast 466 536 31,800 1,220 Climbing New York Center
08:56AM 39.8303 -75.0283 47° Northeast 477 549 33,000 595 Climbing New York Center
08:57AM 39.9206 -74.8986 48° Northeast 477 549 33,000  Level New York Center
08:58AM 40.0128 -74.7603 49° Northeast 471 542 33,000  Level New York Center
08:59AM 40.0672 -74.6250 62° Northeast 462 532 33,000  Level New York Center
09:00AM 40.1353 -74.4550 62° Northeast 469 540 33,000  Level New York Center
09:01AM 40.2275 -74.2039 64° Northeast 483 556 33,000  Level Boston Center
09:02AM 40.2864 -74.0422 64° Northeast 483 556 33,000 -347 Level Boston Center
09:03AM 40.3467 -73.8886 63° Northeast 483 556 32,300 -1,261 Descending Boston Center
09:04AM 40.4069 -73.7292 64° Northeast 483 556 30,500 -1,815 Descending Boston Center
09:05AM 40.4628 -73.5775 64° Northeast 477 549 28,700 -1,736 Descending Boston Center
09:06AM 40.5186 -73.4200 65° Northeast 470 541 27,000 -1,574 Descending Boston Center
09:07AM 40.5739 -73.2653 65° Northeast 464 534 25,500 -1,513 Descending Boston Center
09:08AM 40.6333 -73.1100 63° Northeast 464 534 24,000 -1,525 Descending Boston Center
09:09AM 40.6861 -72.9600 65° Northeast 459 528 22,500 -1,600 Descending Boston Center
09:10AM 40.7472 -72.8044 63° Northeast 447 514 20,800 -1,289 Descending Boston Center
09:11AM 40.7997 -72.6539 65° Northeast 447 514 19,900 -1,328 Descending Boston Center
09:12AM 40.8519 -72.5114 64° Northeast 441 507 18,100 -1,815 Descending Boston Center
09:13AM 40.9019 -72.3658 66° East 441 507 16,300 -1,915 Descending Boston Center
09:14AM 40.9331 -72.2753 66° East 438 504 15,100 -1,800 Descending Boston Center
09:14AM 40.9539 -72.2175 64° Northeast 436 502 14,500 -1,714 Descending Boston Center
09:15AM 40.9911 -72.1183 64° Northeast 427 491 13,100 -1,770 Descending Boston Center
09:15AM 41.0014 -72.0797 71° East 431 496 12,700 -1,520 Descending Boston Center
09:16AM 41.0447 -71.9503 66° East 405 466 11,200 -1,415 Descending Boston Center
09:17AM 41.0797 -71.8811 56° Northeast 337 388 10,200 -1,180 Descending Boston Center
09:17AM 41.0900 -71.8617 55° Northeast 342 394 10,000 -1,600 Descending Boston Center
09:18AM 41.1461 -71.8172 31° Northeast 285 328 8,600 -1,800 Descending Boston Center
09:18AM 41.1628 -71.8058 27° Northeast 286 329 8,200 -1,672 Descending Boston Center
09:19AM 41.2167 -71.7750 23° Northeast 275 316 6,900 -1,698 Descending Boston Center
09:20AM 41.2833 -71.7331 25° Northeast 274 315 5,200 -1,140 Descending Boston Center
09:21AM 41.3517 -71.6936 23° Northeast 269 310 4,600 -1,109 Descending Boston Center
09:22AM 41.4222 -71.6511 24° Northeast 263 303 3,000 -1,311 Descending Boston Center
09:23AM 41.4844 -71.6172 22° Northeast 244 281 2,000 -492 Descending Boston Center
09:24AM 41.5469 -71.5803 24° Northeast 234 269 2,000  Level Boston Center
09:25AM 41.5925 -71.5408 33° Northeast 202 232 2,000 -50 Level Boston Center
09:26AM 41.6358 -71.5042 32° Northeast 179 206 1,900 -446 Descending Boston Center
09:27AM 41.6711 -71.4731 33° Northeast 151 174 1,100 -787 Descending Boston Center
09:28AM 41.7019 -71.4475 32° Northeast 135 155 300 -787 Descending Boston Center